sensor_id;sensor_type;location;lat;lon;timestamp;pressure;altitude;pressure_sealevel;temperature;humidity
23164;BME280;31429;42.674;23.350;2023-09-18T00:30:42;95120.56;;;18.43;100.00
23164;BME280;31429;42.674;23.350;2023-09-18T01:06:52;95126.16;;;19.04;100.00
23164;BME280;31429;42.674;23.350;2023-09-18T01:07:54;95147.81;;;19.03;100.00
23164;BME280;31429;42.674;23.350;2023-09-18T01:08:55;95132.81;;;20.11;100.00
23164;BME280;31429;42.674;23.350;2023-09-18T01:09:56;95153.25;;;20.40;100.00
23164;BME280;31429;42.674;23.350;2023-09-18T01:11:01;95170.28;;;20.81;100.00
23164;BME280;31429;42.674;23.350;2023-09-18T01:12:09;95176.94;;;20.85;100.00
23164;BME280;31429;42.674;23.350;2023-09-18T01:13:14;95177.13;;;21.76;100.00
23164;BME280;31429;42.674;23.350;2023-09-18T01:14:25;95200.19;;;21.46;100.00
23164;BME280;31429;42.674;23.350;2023-09-18T01:15:32;95212.94;;;21.38;100.00
23164;BME280;31429;42.674;23.350;2023-09-18T01:16:41;95210.25;;;21.86;100.00
23164;BME280;31429;42.674;23.350;2023-09-18T01:17:46;95218.66;;;21.78;100.00
23164;BME280;31429;42.674;23.350;2023-09-18T01:18:50;95215.34;;;21.76;100.00
23164;BME280;31429;42.674;23.350;2023-09-18T01:19:51;95207.59;;;21.63;100.00
23164;BME280;31429;42.674;23.350;2023-09-18T01:20:52;95214.38;;;22.12;100.00
23164;BME280;31429;42.674;23.350;2023-09-18T01:21:54;95221.75;;;22.29;100.00
23164;BME280;31429;42.674;23.350;2023-09-18T01:22:59;95222.03;;;21.91;100.00
23164;BME280;31429;42.674;23.350;2023-09-18T01:23:59;95214.13;;;22.04;100.00
23164;BME280;31429;42.674;23.350;2023-09-18T01:25:00;95211.81;;;22.34;100.00
23164;BME280;31429;42.674;23.350;2023-09-18T01:26:01;95225.81;;;22.44;100.00
23164;BME280;31429;42.674;23.350;2023-09-18T01:27:02;95220.13;;;22.50;100.00
23164;BME280;31429;42.674;23.350;2023-09-18T01:28:06;95228.09;;;22.03;100.00
23164;BME280;31429;42.674;23.350;2023-09-18T01:29:27;95216.78;;;22.48;100.00
23164;BME280;31429;42.674;23.350;2023-09-18T01:30:28;95225.09;;;22.98;100.00
23164;BME280;31429;42.674;23.350;2023-09-18T01:31:29;95239.53;;;23.24;100.00
23164;BME280;31429;42.674;23.350;2023-09-18T01:32:31;95239.88;;;23.19;100.00
23164;BME280;31429;42.674;23.350;2023-09-18T01:33:33;95250.56;;;22.61;100.00
23164;BME280;31429;42.674;23.350;2023-09-18T01:34:36;95244.81;;;22.22;100.00
23164;BME280;31429;42.674;23.350;2023-09-18T01:35:40;95228.81;;;21.70;100.00
23164;BME280;31429;42.674;23.350;2023-09-18T01:36:42;95226.78;;;21.62;100.00
23164;BME280;31429;42.674;23.350;2023-09-18T01:37:45;95217.44;;;21.95;100.00
23164;BME280;31429;42.674;23.350;2023-09-18T01:38:48;95225.44;;;22.38;100.00
23164;BME280;31429;42.674;23.350;2023-09-18T01:39:51;95221.56;;;21.62;100.00
23164;BME280;31429;42.674;23.350;2023-09-18T01:40:53;95218.06;;;21.86;100.00
23164;BME280;31429;42.674;23.350;2023-09-18T01:41:54;95223.13;;;22.11;100.00
23164;BME280;31429;42.674;23.350;2023-09-18T01:42:55;95228.34;;;22.11;100.00
23164;BME280;31429;42.674;23.350;2023-09-18T01:43:56;95220.44;;;22.12;100.00
23164;BME280;31429;42.674;23.350;2023-09-18T01:44:57;95231.88;;;21.99;100.00
23164;BME280;31429;42.674;23.350;2023-09-18T01:46:00;95235.56;;;22.75;100.00
23164;BME280;31429;42.674;23.350;2023-09-18T01:47:03;95240.63;;;22.88;100.00
23164;BME280;31429;42.674;23.350;2023-09-18T01:48:05;95231.25;;;22.63;100.00
23164;BME280;31429;42.674;23.350;2023-09-18T01:49:06;95241.22;;;22.47;100.00
23164;BME280;31429;42.674;23.350;2023-09-18T01:50:07;95235.78;;;22.72;100.00
23164;BME280;31429;42.674;23.350;2023-09-18T01:51:08;95234.25;;;22.70;100.00
23164;BME280;31429;42.674;23.350;2023-09-18T01:52:09;95230.31;;;22.53;100.00
23164;BME280;31429;42.674;23.350;2023-09-18T01:53:10;95244.53;;;22.82;100.00
23164;BME280;31429;42.674;23.350;2023-09-18T01:54:13;95239.72;;;22.10;100.00
23164;BME280;31429;42.674;23.350;2023-09-18T01:55:14;95228.13;;;22.14;100.00
23164;BME280;31429;42.674;23.350;2023-09-18T01:56:14;95233.84;;;22.52;100.00
23164;BME280;31429;42.674;23.350;2023-09-18T01:57:17;95238.81;;;22.22;100.00
23164;BME280;31429;42.674;23.350;2023-09-18T01:58:17;95235.41;;;22.77;100.00
23164;BME280;31429;42.674;23.350;2023-09-18T01:59:18;95226.97;;;22.51;100.00
23164;BME280;31429;42.674;23.350;2023-09-18T02:00:19;95251.91;;;22.77;100.00
23164;BME280;31429;42.674;23.350;2023-09-18T02:01:21;95252.59;;;22.68;100.00
23164;BME280;31429;42.674;23.350;2023-09-18T02:02:22;95253.81;;;22.75;100.00
23164;BME280;31429;42.674;23.350;2023-09-18T02:03:22;95257.31;;;22.63;100.00
23164;BME280;31429;42.674;23.350;2023-09-18T02:04:23;95255.78;;;22.61;100.00
23164;BME280;31429;42.674;23.350;2023-09-18T02:05:24;95245.03;;;22.08;100.00
23164;BME280;31429;42.674;23.350;2023-09-18T02:06:24;95254.69;;;22.30;100.00
23164;BME280;31429;42.674;23.350;2023-09-18T02:07:25;95253.28;;;22.48;100.00
23164;BME280;31429;42.674;23.350;2023-09-18T02:08:26;95250.53;;;22.27;100.00
23164;BME280;31429;42.674;23.350;2023-09-18T02:09:28;95251.53;;;22.71;100.00
23164;BME280;31429;42.674;23.350;2023-09-18T02:10:29;95258.50;;;22.59;100.00
23164;BME280;31429;42.674;23.350;2023-09-18T02:11:30;95250.31;;;22.42;100.00
23164;BME280;31429;42.674;23.350;2023-09-18T02:12:30;95244.78;;;22.68;100.00
23164;BME280;31429;42.674;23.350;2023-09-18T02:13:31;95253.34;;;22.70;100.00
23164;BME280;31429;42.674;23.350;2023-09-18T02:14:32;95257.81;;;22.68;100.00
23164;BME280;31429;42.674;23.350;2023-09-18T02:15:36;95264.59;;;22.93;100.00
23164;BME280;31429;42.674;23.350;2023-09-18T02:16:39;95259.25;;;22.72;100.00
23164;BME280;31429;42.674;23.350;2023-09-18T02:17:43;95254.09;;;22.38;100.00
23164;BME280;31429;42.674;23.350;2023-09-18T02:18:44;95258.34;;;22.27;100.00
23164;BME280;31429;42.674;23.350;2023-09-18T02:19:45;95257.09;;;22.55;100.00
23164;BME280;31429;42.674;23.350;2023-09-18T02:20:46;95254.28;;;22.69;100.00
23164;BME280;31429;42.674;23.350;2023-09-18T02:21:49;95249.97;;;22.57;100.00
23164;BME280;31429;42.674;23.350;2023-09-18T02:22:49;95252.19;;;22.51;100.00
23164;BME280;31429;42.674;23.350;2023-09-18T02:23:50;95259.34;;;22.71;100.00
23164;BME280;31429;42.674;23.350;2023-09-18T02:24:53;95248.47;;;22.77;100.00
23164;BME280;31429;42.674;23.350;2023-09-18T02:25:57;95259.97;;;22.74;100.00
23164;BME280;31429;42.674;23.350;2023-09-18T02:26:58;95260.19;;;22.82;100.00
23164;BME280;31429;42.674;23.350;2023-09-18T02:27:59;95251.91;;;22.66;100.00
23164;BME280;31429;42.674;23.350;2023-09-18T02:29:19;95253.31;;;22.93;100.00
23164;BME280;31429;42.674;23.350;2023-09-18T02:30:20;95263.75;;;22.93;100.00
23164;BME280;31429;42.674;23.350;2023-09-18T02:31:21;95265.41;;;23.16;100.00
23164;BME280;31429;42.674;23.350;2023-09-18T02:32:23;95264.69;;;22.69;100.00
23164;BME280;31429;42.674;23.350;2023-09-18T02:33:24;95258.06;;;22.76;100.00
23164;BME280;31429;42.674;23.350;2023-09-18T02:34:25;95263.84;;;22.58;100.00
23164;BME280;31429;42.674;23.350;2023-09-18T02:35:25;95262.53;;;22.63;100.00
23164;BME280;31429;42.674;23.350;2023-09-18T02:36:26;95262.28;;;22.55;100.00
23164;BME280;31429;42.674;23.350;2023-09-18T02:37:27;95257.94;;;22.78;100.00
23164;BME280;31429;42.674;23.350;2023-09-18T02:38:29;95267.19;;;22.71;100.00
23164;BME280;31429;42.674;23.350;2023-09-18T02:39:33;95264.00;;;22.89;100.00
23164;BME280;31429;42.674;23.350;2023-09-18T02:40:36;95270.00;;;23.23;100.00
23164;BME280;31429;42.674;23.350;2023-09-18T02:41:37;95268.00;;;23.16;100.00
23164;BME280;31429;42.674;23.350;2023-09-18T02:42:37;95259.22;;;22.61;100.00
23164;BME280;31429;42.674;23.350;2023-09-18T02:43:38;95260.91;;;22.96;100.00
23164;BME280;31429;42.674;23.350;2023-09-18T02:44:39;95259.59;;;22.68;100.00
23164;BME280;31429;42.674;23.350;2023-09-18T02:45:40;95258.66;;;22.69;100.00
23164;BME280;31429;42.674;23.350;2023-09-18T02:46:42;95259.84;;;22.98;100.00
23164;BME280;31429;42.674;23.350;2023-09-18T02:47:46;95265.00;;;22.54;100.00
23164;BME280;31429;42.674;23.350;2023-09-18T02:48:47;95256.75;;;22.71;100.00
23164;BME280;31429;42.674;23.350;2023-09-18T02:49:47;95255.31;;;21.99;100.00
23164;BME280;31429;42.674;23.350;2023-09-18T02:50:48;95255.84;;;22.15;100.00
23164;BME280;31429;42.674;23.350;2023-09-18T02:51:49;95252.13;;;21.95;100.00
23164;BME280;31429;42.674;23.350;2023-09-18T02:52:52;95254.06;;;22.15;100.00
23164;BME280;31429;42.674;23.350;2023-09-18T02:53:53;95255.16;;;22.35;100.00
23164;BME280;31429;42.674;23.350;2023-09-18T02:55:03;95261.91;;;22.38;100.00
23164;BME280;31429;42.674;23.350;2023-09-18T02:56:08;95243.19;;;22.32;100.00
23164;BME280;31429;42.674;23.350;2023-09-18T02:57:08;95255.03;;;22.37;100.00
23164;BME280;31429;42.674;23.350;2023-09-18T02:58:09;95260.78;;;22.07;100.00
23164;BME280;31429;42.674;23.350;2023-09-18T02:59:10;95260.53;;;21.75;100.00
23164;BME280;31429;42.674;23.350;2023-09-18T03:00:16;95251.63;;;22.36;100.00
23164;BME280;31429;42.674;23.350;2023-09-18T03:01:17;95255.81;;;22.04;100.00
23164;BME280;31429;42.674;23.350;2023-09-18T03:02:18;95260.53;;;21.99;100.00
23164;BME280;31429;42.674;23.350;2023-09-18T03:03:19;95246.31;;;21.68;100.00
23164;BME280;31429;42.674;23.350;2023-09-18T03:04:20;95256.41;;;21.84;100.00
23164;BME280;31429;42.674;23.350;2023-09-18T03:05:20;95255.00;;;22.14;100.00
23164;BME280;31429;42.674;23.350;2023-09-18T03:06:21;95268.41;;;22.32;100.00
23164;BME280;31429;42.674;23.350;2023-09-18T03:07:22;95258.66;;;22.69;100.00
23164;BME280;31429;42.674;23.350;2023-09-18T03:08:23;95264.91;;;21.74;100.00
23164;BME280;31429;42.674;23.350;2023-09-18T03:09:23;95249.25;;;22.33;100.00
23164;BME280;31429;42.674;23.350;2023-09-18T03:10:24;95264.66;;;22.58;100.00
23164;BME280;31429;42.674;23.350;2023-09-18T03:11:27;95261.16;;;22.13;100.00
23164;BME280;31429;42.674;23.350;2023-09-18T03:12:29;95261.97;;;22.71;100.00
23164;BME280;31429;42.674;23.350;2023-09-18T03:13:30;95277.94;;;22.55;100.00
23164;BME280;31429;42.674;23.350;2023-09-18T03:14:32;95275.09;;;22.58;100.00
23164;BME280;31429;42.674;23.350;2023-09-18T03:15:32;95267.31;;;22.69;100.00
23164;BME280;31429;42.674;23.350;2023-09-18T03:16:34;95253.91;;;22.06;100.00
23164;BME280;31429;42.674;23.350;2023-09-18T03:17:35;95262.69;;;22.05;100.00
23164;BME280;31429;42.674;23.350;2023-09-18T03:18:38;95260.50;;;21.88;100.00
23164;BME280;31429;42.674;23.350;2023-09-18T03:19:39;95265.50;;;21.54;100.00
23164;BME280;31429;42.674;23.350;2023-09-18T03:20:39;95240.34;;;22.13;100.00
23164;BME280;31429;42.674;23.350;2023-09-18T03:21:40;95252.56;;;22.35;100.00
23164;BME280;31429;42.674;23.350;2023-09-18T03:22:41;95262.13;;;22.23;100.00
23164;BME280;31429;42.674;23.350;2023-09-18T03:23:42;95262.47;;;22.76;100.00
23164;BME280;31429;42.674;23.350;2023-09-18T03:24:43;95256.19;;;22.67;100.00
23164;BME280;31429;42.674;23.350;2023-09-18T03:25:44;95261.81;;;22.61;100.00
23164;BME280;31429;42.674;23.350;2023-09-18T03:26:46;95262.44;;;22.65;100.00
23164;BME280;31429;42.674;23.350;2023-09-18T03:27:47;95263.44;;;22.40;100.00
23164;BME280;31429;42.674;23.350;2023-09-18T03:28:48;95260.50;;;21.88;100.00
23164;BME280;31429;42.674;23.350;2023-09-18T03:29:48;95253.50;;;21.41;100.00
23164;BME280;31429;42.674;23.350;2023-09-18T03:30:49;95235.75;;;21.11;100.00
23164;BME280;31429;42.674;23.350;2023-09-18T03:31:50;95248.75;;;21.58;100.00
23164;BME280;31429;42.674;23.350;2023-09-18T03:32:50;95242.50;;;22.42;100.00
23164;BME280;31429;42.674;23.350;2023-09-18T03:33:51;95251.56;;;21.79;100.00
23164;BME280;31429;42.674;23.350;2023-09-18T03:34:52;95248.34;;;21.99;100.00
23164;BME280;31429;42.674;23.350;2023-09-18T03:35:53;95246.91;;;21.95;100.00
23164;BME280;31429;42.674;23.350;2023-09-18T03:36:59;95250.28;;;21.37;100.00
23164;BME280;31429;42.674;23.350;2023-09-18T03:37:59;95233.50;;;21.17;100.00
23164;BME280;31429;42.674;23.350;2023-09-18T03:39:00;95246.97;;;21.35;100.00
23164;BME280;31429;42.674;23.350;2023-09-18T03:40:01;95240.88;;;20.75;100.00
23164;BME280;31429;42.674;23.350;2023-09-18T03:41:03;95234.09;;;20.48;100.00
23164;BME280;31429;42.674;23.350;2023-09-18T03:42:05;95229.78;;;20.73;100.00
23164;BME280;31429;42.674;23.350;2023-09-18T03:43:06;95220.16;;;21.11;100.00
23164;BME280;31429;42.674;23.350;2023-09-18T03:46:07;95229.16;;;19.93;100.00
23164;BME280;31429;42.674;23.350;2023-09-18T06:12:01;95214.50;;;21.17;100.00
23164;BME280;31429;42.674;23.350;2023-09-18T06:13:06;95221.47;;;21.40;100.00
23164;BME280;31429;42.674;23.350;2023-09-18T06:14:08;95221.81;;;21.94;100.00
23164;BME280;31429;42.674;23.350;2023-09-18T06:15:10;95241.75;;;22.28;100.00
23164;BME280;31429;42.674;23.350;2023-09-18T06:16:13;95248.56;;;22.53;100.00
23164;BME280;31429;42.674;23.350;2023-09-18T06:17:16;95247.38;;;22.79;100.00
23164;BME280;31429;42.674;23.350;2023-09-18T06:18:17;95256.66;;;22.83;100.00
23164;BME280;31429;42.674;23.350;2023-09-18T06:19:18;95261.13;;;23.04;100.00
23164;BME280;31429;42.674;23.350;2023-09-18T06:20:18;95275.50;;;22.98;100.00
23164;BME280;31429;42.674;23.350;2023-09-18T06:21:19;95275.59;;;22.74;100.00
23164;BME280;31429;42.674;23.350;2023-09-18T06:22:20;95276.81;;;22.81;100.00
23164;BME280;31429;42.674;23.350;2023-09-18T06:23:21;95277.97;;;22.88;100.00
23164;BME280;31429;42.674;23.350;2023-09-18T06:24:21;95278.06;;;23.09;100.00
23164;BME280;31429;42.674;23.350;2023-09-18T06:25:22;95280.47;;;23.01;100.00
23164;BME280;31429;42.674;23.350;2023-09-18T06:26:23;95280.78;;;23.19;100.00
23164;BME280;31429;42.674;23.350;2023-09-18T06:27:25;95284.94;;;23.21;100.00
23164;BME280;31429;42.674;23.350;2023-09-18T06:28:25;95287.44;;;23.12;100.00
23164;BME280;31429;42.674;23.350;2023-09-18T06:29:26;95291.56;;;23.25;100.00
23164;BME280;31429;42.674;23.350;2023-09-18T06:30:27;95288.47;;;23.42;100.00
23164;BME280;31429;42.674;23.350;2023-09-18T06:31:28;95281.06;;;23.59;100.00
23164;BME280;31429;42.674;23.350;2023-09-18T06:32:28;95286.28;;;23.70;100.00
23164;BME280;31429;42.674;23.350;2023-09-18T06:33:29;95293.56;;;23.55;100.00
23164;BME280;31429;42.674;23.350;2023-09-18T06:34:30;95288.91;;;23.59;100.00
23164;BME280;31429;42.674;23.350;2023-09-18T06:35:31;95293.84;;;23.41;100.00
23164;BME280;31429;42.674;23.350;2023-09-18T06:36:31;95295.22;;;23.56;100.00
23164;BME280;31429;42.674;23.350;2023-09-18T06:37:32;95287.69;;;23.74;100.00
23164;BME280;31429;42.674;23.350;2023-09-18T06:38:32;95293.16;;;23.71;100.00
23164;BME280;31429;42.674;23.350;2023-09-18T06:39:33;95299.34;;;23.70;100.00
23164;BME280;31429;42.674;23.350;2023-09-18T06:40:34;95294.72;;;23.62;100.00
23164;BME280;31429;42.674;23.350;2023-09-18T06:41:34;95290.16;;;23.86;100.00
23164;BME280;31429;42.674;23.350;2023-09-18T06:42:36;95291.72;;;23.78;100.00
23164;BME280;31429;42.674;23.350;2023-09-18T06:43:41;95289.31;;;23.86;100.00
23164;BME280;31429;42.674;23.350;2023-09-18T06:44:41;95296.56;;;23.82;100.00
23164;BME280;31429;42.674;23.350;2023-09-18T06:45:42;95292.09;;;23.62;100.00
23164;BME280;31429;42.674;23.350;2023-09-18T06:46:44;95282.72;;;23.71;100.00
23164;BME280;31429;42.674;23.350;2023-09-18T06:47:45;95298.78;;;23.55;100.00
23164;BME280;31429;42.674;23.350;2023-09-18T06:48:47;95301.03;;;23.60;100.00
23164;BME280;31429;42.674;23.350;2023-09-18T06:49:48;95297.09;;;23.65;100.00
23164;BME280;31429;42.674;23.350;2023-09-18T06:50:49;95298.34;;;23.82;100.00
23164;BME280;31429;42.674;23.350;2023-09-18T06:51:55;95297.47;;;23.61;100.00
23164;BME280;31429;42.674;23.350;2023-09-18T06:52:56;95293.16;;;23.71;100.00
23164;BME280;31429;42.674;23.350;2023-09-18T06:53:57;95292.28;;;23.81;100.00
23164;BME280;31429;42.674;23.350;2023-09-18T06:54:58;95300.13;;;23.81;100.00
23164;BME280;31429;42.674;23.350;2023-09-18T06:55:58;95294.81;;;23.72;100.00
23164;BME280;31429;42.674;23.350;2023-09-18T06:56:59;95297.25;;;23.53;100.00
23164;BME280;31429;42.674;23.350;2023-09-18T06:58:02;95298.34;;;22.95;100.00
23164;BME280;31429;42.674;23.350;2023-09-18T06:59:03;95295.63;;;22.96;100.00
23164;BME280;31429;42.674;23.350;2023-09-18T07:00:05;95286.50;;;22.68;100.00
23164;BME280;31429;42.674;23.350;2023-09-18T07:01:06;95291.25;;;22.74;100.00
23164;BME280;31429;42.674;23.350;2023-09-18T07:02:10;95296.59;;;22.84;100.00
23164;BME280;31429;42.674;23.350;2023-09-18T07:03:10;95293.84;;;23.41;100.00
23164;BME280;31429;42.674;23.350;2023-09-18T07:04:11;95296.28;;;23.54;100.00
23164;BME280;31429;42.674;23.350;2023-09-18T07:05:12;95303.59;;;23.71;100.00
23164;BME280;31429;42.674;23.350;2023-09-18T07:06:13;95291.09;;;23.85;100.00
23164;BME280;31429;42.674;23.350;2023-09-18T07:07:15;95303.16;;;23.97;100.00
23164;BME280;31429;42.674;23.350;2023-09-18T07:08:16;95295.19;;;23.99;100.00
23164;BME280;31429;42.674;23.350;2023-09-18T07:09:20;95295.75;;;24.02;100.00
23164;BME280;31429;42.674;23.350;2023-09-18T07:10:23;95300.72;;;24.17;100.00
23164;BME280;31429;42.674;23.350;2023-09-18T07:11:24;95300.06;;;24.24;100.00
23164;BME280;31429;42.674;23.350;2023-09-18T07:12:24;95293.31;;;24.22;100.00
23164;BME280;31429;42.674;23.350;2023-09-18T07:13:26;95294.31;;;24.21;100.00
23164;BME280;31429;42.674;23.350;2023-09-18T07:14:27;95298.69;;;24.20;100.00
23164;BME280;31429;42.674;23.350;2023-09-18T07:15:28;95298.19;;;23.94;100.00
23164;BME280;31429;42.674;23.350;2023-09-18T07:16:28;95291.22;;;24.04;100.00
23164;BME280;31429;42.674;23.350;2023-09-18T07:17:29;95294.19;;;23.79;100.00
23164;BME280;31429;42.674;23.350;2023-09-18T07:18:29;95299.31;;;23.81;100.00
23164;BME280;31429;42.674;23.350;2023-09-18T07:19:30;95304.09;;;23.96;100.00
23164;BME280;31429;42.674;23.350;2023-09-18T07:20:31;95297.22;;;23.95;100.00
23164;BME280;31429;42.674;23.350;2023-09-18T07:21:32;95299.47;;;24.00;100.00
23164;BME280;31429;42.674;23.350;2023-09-18T07:22:35;95294.31;;;24.10;100.00
23164;BME280;31429;42.674;23.350;2023-09-18T07:23:36;95301.72;;;23.93;100.00
23164;BME280;31429;42.674;23.350;2023-09-18T07:24:37;95299.94;;;23.62;100.00
23164;BME280;31429;42.674;23.350;2023-09-18T07:25:41;95302.00;;;23.25;100.00
23164;BME280;31429;42.674;23.350;2023-09-18T07:26:45;95296.75;;;23.59;100.00
23164;BME280;31429;42.674;23.350;2023-09-18T07:27:46;95294.47;;;23.97;100.00
23164;BME280;31429;42.674;23.350;2023-09-18T07:28:48;95296.09;;;24.09;100.00
23164;BME280;31429;42.674;23.350;2023-09-18T07:29:48;95304.50;;;23.92;100.00
23164;BME280;31429;42.674;23.350;2023-09-18T07:30:49;95298.50;;;24.01;100.00
23164;BME280;31429;42.674;23.350;2023-09-18T07:31:50;95293.59;;;24.08;100.00
23164;BME280;31429;42.674;23.350;2023-09-18T07:32:51;95301.94;;;24.01;100.00
23164;BME280;31429;42.674;23.350;2023-09-18T07:33:51;95298.53;;;23.58;100.00
23164;BME280;31429;42.674;23.350;2023-09-18T07:34:53;95299.66;;;23.76;100.00
23164;BME280;31429;42.674;23.350;2023-09-18T07:35:54;95300.63;;;23.75;100.00
23164;BME280;31429;42.674;23.350;2023-09-18T07:36:54;95306.84;;;23.95;100.00
23164;BME280;31429;42.674;23.350;2023-09-18T07:37:56;95296.22;;;24.08;100.00
23164;BME280;31429;42.674;23.350;2023-09-18T07:38:57;95298.59;;;24.11;100.00
23164;BME280;31429;42.674;23.350;2023-09-18T07:39:58;95297.53;;;24.13;100.00
23164;BME280;31429;42.674;23.350;2023-09-18T07:40:59;95295.06;;;24.00;99.53
23164;BME280;31429;42.674;23.350;2023-09-18T07:42:00;95300.28;;;23.69;100.00
23164;BME280;31429;42.674;23.350;2023-09-18T07:43:01;95292.72;;;23.97;100.00
23164;BME280;31429;42.674;23.350;2023-09-18T07:44:03;95291.13;;;24.06;100.00
23164;BME280;31429;42.674;23.350;2023-09-18T07:45:05;95295.44;;;24.28;100.00
23164;BME280;31429;42.674;23.350;2023-09-18T07:46:05;95303.78;;;24.22;99.48
23164;BME280;31429;42.674;23.350;2023-09-18T07:47:06;95295.94;;;24.22;100.00
23164;BME280;31429;42.674;23.350;2023-09-18T07:48:07;95298.97;;;24.38;100.00
23164;BME280;31429;42.674;23.350;2023-09-18T07:49:08;95295.56;;;24.47;97.92
23164;BME280;31429;42.674;23.350;2023-09-18T07:50:09;95306.38;;;24.22;99.53
23164;BME280;31429;42.674;23.350;2023-09-18T07:51:10;95296.59;;;24.35;100.00
23164;BME280;31429;42.674;23.350;2023-09-18T07:52:11;95292.50;;;24.21;97.33
23164;BME280;31429;42.674;23.350;2023-09-18T07:53:12;95286.75;;;23.75;99.98
23164;BME280;31429;42.674;23.350;2023-09-18T07:54:14;95291.09;;;24.17;100.00
23164;BME280;31429;42.674;23.350;2023-09-18T07:55:16;95299.41;;;24.43;100.00
23164;BME280;31429;42.674;23.350;2023-09-18T07:56:17;95300.09;;;24.45;98.82
23164;BME280;31429;42.674;23.350;2023-09-18T07:57:19;95288.50;;;24.38;98.16
23164;BME280;31429;42.674;23.350;2023-09-18T07:58:21;95296.00;;;24.52;96.79
23164;BME280;31429;42.674;23.350;2023-09-18T07:59:23;95288.69;;;24.46;98.95
23164;BME280;31429;42.674;23.350;2023-09-18T08:00:25;95291.59;;;24.52;98.73
23164;BME280;31429;42.674;23.350;2023-09-18T08:01:26;95293.31;;;24.63;96.85
23164;BME280;31429;42.674;23.350;2023-09-18T08:02:27;95288.22;;;24.82;96.21
23164;BME280;31429;42.674;23.350;2023-09-18T08:03:29;95286.34;;;24.73;94.83
23164;BME280;31429;42.674;23.350;2023-09-18T08:04:31;95289.19;;;24.61;96.25
23164;BME280;31429;42.674;23.350;2023-09-18T08:05:31;95293.34;;;24.73;96.85
23164;BME280;31429;42.674;23.350;2023-09-18T08:06:32;95288.69;;;24.76;92.77
23164;BME280;31429;42.674;23.350;2023-09-18T08:07:33;95291.47;;;24.75;95.57
23164;BME280;31429;42.674;23.350;2023-09-18T08:08:33;95284.97;;;24.48;94.20
23164;BME280;31429;42.674;23.350;2023-09-18T08:09:34;95285.06;;;24.37;94.62
23164;BME280;31429;42.674;23.350;2023-09-18T08:10:39;95284.59;;;24.32;95.90
23164;BME280;31429;42.674;23.350;2023-09-18T08:11:41;95284.41;;;24.45;96.24
23164;BME280;31429;42.674;23.350;2023-09-18T08:12:43;95293.84;;;23.73;96.52
23164;BME280;31429;42.674;23.350;2023-09-18T08:13:44;95289.28;;;23.54;100.00
23164;BME280;31429;42.674;23.350;2023-09-18T08:14:46;95284.78;;;23.88;100.00
23164;BME280;31429;42.674;23.350;2023-09-18T08:15:47;95288.50;;;24.38;100.00
23164;BME280;31429;42.674;23.350;2023-09-18T08:16:47;95284.59;;;24.53;98.60
23164;BME280;31429;42.674;23.350;2023-09-18T08:17:48;95278.84;;;24.59;92.33
23164;BME280;31429;42.674;23.350;2023-09-18T08:18:49;95285.34;;;24.65;95.63
23164;BME280;31429;42.674;23.350;2023-09-18T08:19:50;95290.31;;;24.68;91.83
23164;BME280;31429;42.674;23.350;2023-09-18T08:20:51;95287.09;;;24.54;94.66
23164;BME280;31429;42.674;23.350;2023-09-18T08:21:52;95282.38;;;24.48;93.62
23164;BME280;31429;42.674;23.350;2023-09-18T08:22:53;95286.06;;;24.46;94.63
23164;BME280;31429;42.674;23.350;2023-09-18T08:23:53;95281.97;;;24.53;95.58
23164;BME280;31429;42.674;23.350;2023-09-18T08:24:54;95282.72;;;24.65;94.90
23164;BME280;31429;42.674;23.350;2023-09-18T08:25:55;95274.38;;;24.50;94.43
23164;BME280;31429;42.674;23.350;2023-09-18T08:26:57;95271.66;;;24.10;95.81
23164;BME280;31429;42.674;23.350;2023-09-18T08:27:58;95283.84;;;24.21;97.55
23164;BME280;31429;42.674;23.350;2023-09-18T08:28:59;95270.56;;;24.13;96.05
23164;BME280;31429;42.674;23.350;2023-09-18T08:30:01;95270.53;;;23.92;96.16
23164;BME280;31429;42.674;23.350;2023-09-18T08:31:01;95271.31;;;24.03;99.60
23164;BME280;31429;42.674;23.350;2023-09-18T08:32:02;95276.13;;;24.19;97.29
23164;BME280;31429;42.674;23.350;2023-09-18T08:33:03;95276.22;;;24.38;94.83
23164;BME280;31429;42.674;23.350;2023-09-18T08:34:05;95274.47;;;24.39;94.93
23164;BME280;31429;42.674;23.350;2023-09-18T08:35:07;95278.34;;;24.44;96.44
23164;BME280;31429;42.674;23.350;2023-09-18T08:36:08;95272.16;;;24.45;91.99
23164;BME280;31429;42.674;23.350;2023-09-18T08:37:09;95272.91;;;24.16;94.88
23164;BME280;31429;42.674;23.350;2023-09-18T08:38:10;95281.22;;;23.89;94.93
23164;BME280;31429;42.674;23.350;2023-09-18T08:39:10;95277.38;;;23.72;98.32
23164;BME280;31429;42.674;23.350;2023-09-18T08:40:12;95272.38;;;24.01;100.00
23164;BME280;31429;42.674;23.350;2023-09-18T08:41:14;95266.31;;;24.12;100.00
23164;BME280;31429;42.674;23.350;2023-09-18T08:42:20;95260.69;;;24.16;98.61
23164;BME280;31429;42.674;23.350;2023-09-18T08:43:21;95264.06;;;24.28;94.22
23164;BME280;31429;42.674;23.350;2023-09-18T08:44:26;95265.84;;;23.95;97.82
23164;BME280;31429;42.674;23.350;2023-09-18T08:45:37;95266.31;;;23.80;98.51
23164;BME280;31429;42.674;23.350;2023-09-18T08:46:41;95264.41;;;24.02;100.00
23164;BME280;31429;42.674;23.350;2023-09-18T08:47:44;95255.84;;;24.12;96.12
23164;BME280;31429;42.674;23.350;2023-09-18T08:48:46;95259.69;;;24.28;97.35
23164;BME280;31429;42.674;23.350;2023-09-18T08:49:48;95257.34;;;24.55;95.35
23164;BME280;31429;42.674;23.350;2023-09-18T08:50:51;95266.44;;;24.51;91.33
23164;BME280;31429;42.674;23.350;2023-09-18T08:51:54;95258.41;;;24.43;92.54